Time;durP1;ratioP1;P1;durP2;ratioP2;P2;SDS_P1;SDS_P2;PMS_P1;PMS_P2;Temp;Humidity;BMP_temperature;BMP_pressure;BME280_temperature;BME280_humidity;BME280_pressure;Samples;Min_cycle;Max_cycle;Signal;HPM_P1;HPM_P2
2022/11/16 00:01:24;;;;;;;;;;;10.50;99.90;;;;;;5013439;28;20289;-88
2022/11/16 00:03:51;;;;;;;;;;;10.30;99.90;;;;;;5030097;28;19929;-87
2022/11/16 00:06:17;;;;;;;;;;;10.10;99.90;;;;;;5012401;28;19932;-88
2022/11/16 00:08:44;;;;;;;;;;;10.10;99.90;;;;;;5010615;28;19977;-88
2022/11/16 00:11:13;;;;;;;;;;;10.30;99.90;;;;;;4997993;28;20348;-89
2022/11/16 00:13:49;;;;;;;;;;;11.40;99.90;;;;;;4996612;28;19926;-88
2022/11/16 00:16:18;;;;;;;;;;;10.00;99.90;;;;;;5001763;28;19947;-89
2022/11/16 00:18:46;;;;;;;;;;;10.00;99.90;;;;;;4993268;28;20505;-88
2022/11/16 00:21:12;;;;;;;;;;;10.10;99.90;;;;;;4993028;28;19948;-89
2022/11/16 00:23:38;;;;;;;;;;;10.10;99.90;;;;;;5002483;28;19925;-88
2022/11/16 00:26:05;;;;;;;;;;;10.00;99.90;;;;;;5006478;28;19968;-88
2022/11/16 00:28:31;;;;;;;;;;;10.10;99.90;;;;;;5004361;28;19925;-87
2022/11/16 00:30:58;;;;;;;;;;;9.50;99.90;;;;;;5012330;28;20366;-88
2022/11/16 00:33:28;;;;;;;;;;;10.00;99.90;;;;;;5004461;28;19931;-87
2022/11/16 00:35:56;;;;;;;;;;;10.00;99.90;;;;;;5037796;28;20306;-88
2022/11/16 00:38:25;;;;;;;;;;;10.00;99.90;;;;;;5000250;28;19935;-88
2022/11/16 00:40:50;;;;;;;;;;;10.00;99.90;;;;;;5000427;28;20377;-88
2022/11/16 00:43:16;;;;;;;;;;;10.10;99.90;;;;;;5013072;28;19930;-87
2022/11/16 00:45:42;;;;;;;;;;;10.00;99.90;;;;;;5009915;28;19925;-87
2022/11/16 00:48:08;;;;;;;;;;;10.00;99.90;;;;;;5007098;28;19932;-87
2022/11/16 00:50:37;;;;;;;;;;;10.00;99.90;;;;;;5003038;28;20308;-88
2022/11/16 00:53:03;;;;;;;;;;;8.40;99.90;;;;;;5000599;28;20273;-88
2022/11/16 00:55:34;;;;;;;;;;;10.10;99.90;;;;;;4999939;28;19925;-88
2022/11/16 00:58:00;;;;;;;;;;;10.00;99.90;;;;;;4992202;28;19979;-88
2022/11/16 01:00:28;;;;;;;;;;;10.20;99.90;;;;;;4999482;28;20385;-88
2022/11/16 01:02:54;;;;;;;;;;;10.10;99.90;;;;;;5001540;28;20254;-87
2022/11/16 01:05:23;;;;;;;;;;;10.10;99.90;;;;;;4981858;28;20013;-89
2022/11/16 01:07:50;;;;;;;;;;;10.00;99.90;;;;;;5017470;28;19948;-89
2022/11/16 01:10:17;;;;;;;;;;;9.50;99.90;;;;;;4999433;28;19925;-88
2022/11/16 01:12:43;;;;;;;;;;;10.00;99.90;;;;;;5020616;28;19933;-88
2022/11/16 01:15:09;;;;;;;;;;;10.00;99.90;;;;;;4999589;28;19925;-88
2022/11/16 01:17:36;;;;;;;;;;;10.30;99.90;;;;;;5016209;28;19976;-88
2022/11/16 01:20:05;;;;;;;;;;;10.20;99.90;;;;;;4982164;28;19925;-87
2022/11/16 01:22:31;;;;;;;;;;;10.00;99.90;;;;;;4987259;28;19972;-88
2022/11/16 01:24:57;;;;;;;;;;;10.20;99.90;;;;;;4999071;28;19940;-87
2022/11/16 01:27:27;;;;;;;;;;;10.00;99.90;;;;;;5001294;28;19926;-90
2022/11/16 01:29:53;;;;;;;;;;;10.20;99.90;;;;;;5019360;28;19980;-89
2022/11/16 01:32:21;;;;;;;;;;;10.10;99.90;;;;;;4993765;28;19929;-88
2022/11/16 01:34:49;;;;;;;;;;;10.10;99.90;;;;;;5002001;28;19964;-88
2022/11/16 01:37:15;;;;;;;;;;;10.10;99.90;;;;;;5009796;28;19926;-88
2022/11/16 01:39:43;;;;;;;;;;;10.00;99.90;;;;;;4990506;28;19925;-88
2022/11/16 01:42:18;;;;;;;;;;;10.00;99.90;;;;;;4997549;28;19952;-89
2022/11/16 01:44:43;;;;;;;;;;;10.10;99.90;;;;;;4995458;28;19932;-89
2022/11/16 01:47:11;;;;;;;;;;;10.10;99.90;;;;;;5002357;28;19925;-88
2022/11/16 01:49:44;;;;;;;;;;;10.20;99.90;;;;;;5015668;28;19924;-89
2022/11/16 01:52:13;;;;;;;;;;;10.30;99.90;;;;;;4991192;28;19925;-89
2022/11/16 01:54:41;;;;;;;;;;;10.10;99.90;;;;;;4983098;28;19975;-89
2022/11/16 01:57:09;;;;;;;;;;;10.30;99.90;;;;;;5002245;28;20493;-88
2022/11/16 01:59:35;;;;;;;;;;;9.40;99.90;;;;;;5002826;28;20016;-88
2022/11/16 02:02:03;;;;;;;;;;;10.10;99.90;;;;;;4997882;28;19926;-88
2022/11/16 02:04:29;;;;;;;;;;;10.20;99.90;;;;;;4996896;28;19925;-89
2022/11/16 02:07:08;;;;;;;;;;;10.20;99.90;;;;;;4998273;28;19940;-90
2022/11/16 02:09:52;;;;;;;;;;;10.10;99.90;;;;;;5022868;28;19928;-89
2022/11/16 02:12:33;;;;;;;;;;;10.30;99.90;;;;;;5026166;28;19931;-88
2022/11/16 02:15:05;;;;;;;;;;;10.10;99.90;;;;;;5019278;28;19936;-89
2022/11/16 02:17:52;;;;;;;;;;;10.10;99.90;;;;;;5028323;28;19974;-89
2022/11/16 02:20:36;;;;;;;;;;;10.10;99.90;;;;;;5021222;28;20379;-89
2022/11/16 02:23:16;;;;;;;;;;;10.20;99.90;;;;;;5019987;28;19924;-89
2022/11/16 02:25:42;;;;;;;;;;;10.20;99.90;;;;;;5035898;28;19924;-89
2022/11/16 02:28:19;;;;;;;;;;;10.20;99.90;;;;;;5014866;28;19925;-89
2022/11/16 02:30:48;;;;;;;;;;;10.20;99.90;;;;;;5018184;28;19925;-90
2022/11/16 02:33:16;;;;;;;;;;;10.20;99.90;;;;;;5017353;28;19932;-89
2022/11/16 02:35:46;;;;;;;;;;;10.20;99.90;;;;;;5019890;28;20004;-89
2022/11/16 02:38:21;;;;;;;;;;;10.20;99.90;;;;;;5012308;28;19925;-89
2022/11/16 02:40:51;;;;;;;;;;;8.70;99.90;;;;;;5014668;28;19956;-89
2022/11/16 02:43:39;;;;;;;;;;;10.10;99.90;;;;;;5015642;28;19936;-89
2022/11/16 02:46:07;;;;;;;;;;;9.90;99.90;;;;;;5028621;28;19925;-89
2022/11/16 02:48:37;;;;;;;;;;;10.30;99.90;;;;;;5022367;28;19924;-89
2022/11/16 02:51:11;;;;;;;;;;;10.10;99.90;;;;;;5017158;28;20032;-89
2022/11/16 02:53:43;;;;;;;;;;;9.40;99.90;;;;;;5018278;28;19932;-89
2022/11/16 02:56:14;;;;;;;;;;;10.20;99.90;;;;;;5026590;28;19978;-89
2022/11/16 02:58:40;;;;;;;;;;;9.70;99.90;;;;;;5021813;28;19960;-89
2022/11/16 03:01:27;;;;;;;;;;;10.20;99.90;;;;;;5003981;28;20462;-88
2022/11/16 03:03:58;;;;;;;;;;;10.10;99.90;;;;;;5026887;28;19933;-89
2022/11/16 03:06:28;;;;;;;;;;;10.20;99.90;;;;;;5027902;28;19924;-89
2022/11/16 03:09:05;;;;;;;;;;;10.20;99.90;;;;;;5025008;28;19925;-90
2022/11/16 03:14:19;;;;;;;;;;;11.10;99.90;;;;;;5034097;28;20295;-89
2022/11/16 03:16:49;;;;;;;;;;;10.30;99.90;;;;;;5026732;28;19971;-89
2022/11/16 03:19:20;;;;;;;;;;;10.30;99.90;;;;;;5021222;28;19925;-89
2022/11/16 03:21:58;;;;;;;;;;;10.20;99.90;;;;;;5040449;28;19932;-88
2022/11/16 03:24:29;;;;;;;;;;;8.90;99.90;;;;;;5020360;28;19964;-88
2022/11/16 03:27:02;;;;;;;;;;;11.90;99.90;;;;;;5026950;28;19925;-89
2022/11/16 03:29:47;;;;;;;;;;;10.30;99.90;;;;;;5021103;28;19935;-89
2022/11/16 03:32:31;;;;;;;;;;;;;;;;;;;;;
2022/11/16 03:35:11;;;;;;;;;;;10.30;99.90;;;;;;5036166;28;19947;-90
2022/11/16 03:37:48;;;;;;;;;;;10.30;99.90;;;;;;5011023;28;19964;-89
2022/11/16 03:40:34;;;;;;;;;;;10.20;99.90;;;;;;5022324;28;19956;-89
2022/11/16 03:43:00;;;;;;;;;;;10.30;99.90;;;;;;5038244;28;19929;-89
2022/11/16 03:45:38;;;;;;;;;;;10.20;99.90;;;;;;5033443;28;20000;-89
2022/11/16 03:48:08;;;;;;;;;;;10.10;99.90;;;;;;5022869;28;19947;-89
2022/11/16 03:50:36;;;;;;;;;;;10.10;99.90;;;;;;5042305;28;19998;-89
2022/11/16 03:53:04;;;;;;;;;;;10.20;99.90;;;;;;5026530;28;19932;-89
2022/11/16 03:55:32;;;;;;;;;;;10.20;99.90;;;;;;5022311;28;19924;-90
2022/11/16 03:57:57;;;;;;;;;;;9.80;99.90;;;;;;5044194;28;19931;-89
2022/11/16 04:00:26;;;;;;;;;;;10.20;99.90;;;;;;5029390;28;20015;-90
2022/11/16 04:02:52;;;;;;;;;;;10.30;99.90;;;;;;5019321;28;19929;-90
2022/11/16 04:25:13;;;;;;;;;;;10.10;99.90;;;;;;5041229;28;19924;-89
2022/11/16 04:30:26;;;;;;;;;;;10.50;99.90;;;;;;5033607;28;20332;-89
2022/11/16 04:38:37;;;;;;;;;;;9.90;99.90;;;;;;5007278;28;19925;-89
2022/11/16 04:42:12;;;;;;;;;;;10.10;99.90;;;;;;5003987;28;19932;-89
2022/11/16 04:43:49;;;;;;;;;;;10.40;99.90;;;;;;5036711;28;19925;-89
2022/11/16 04:49:04;;;;;;;;;;;10.20;99.90;;;;;;5045650;28;19953;-92
2022/11/16 04:51:32;;;;;;;;;;;10.10;99.90;;;;;;5017239;28;19956;-90
2022/11/16 04:53:58;;;;;;;;;;;10.10;99.90;;;;;;5041505;28;19924;-88
2022/11/16 04:56:23;;;;;;;;;;;10.10;99.90;;;;;;5020134;28;19925;-88
2022/11/16 04:58:54;;;;;;;;;;;10.10;99.90;;;;;;5025266;28;19925;-90
2022/11/16 05:02:06;;;;;;;;;;;10.10;99.90;;;;;;5011971;28;20015;-89
2022/11/16 05:04:11;;;;;;;;;;;10.10;99.90;;;;;;5005622;28;19936;-89
2022/11/16 05:06:39;;;;;;;;;;;10.20;99.90;;;;;;5011398;28;20413;-89
2022/11/16 05:09:07;;;;;;;;;;;9.00;99.90;;;;;;5019471;28;20043;-89
2022/11/16 05:11:33;;;;;;;;;;;9.70;99.90;;;;;;5018975;28;19931;-89
2022/11/16 05:14:01;;;;;;;;;;;10.00;99.90;;;;;;5019403;28;20342;-88
2022/11/16 05:16:26;;;;;;;;;;;10.10;99.90;;;;;;5023423;28;19933;-89
2022/11/16 05:21:36;;;;;;;;;;;10.10;99.90;;;;;;5038764;28;20385;-88
2022/11/16 05:26:51;;;;;;;;;;;10.10;99.90;;;;;;5039010;28;19932;-90
2022/11/16 05:29:17;;;;;;;;;;;10.80;99.90;;;;;;5017222;28;19925;-89
2022/11/16 05:31:45;;;;;;;;;;;9.50;99.90;;;;;;5022750;28;19931;-89
2022/11/16 05:34:13;;;;;;;;;;;10.10;99.90;;;;;;5023845;28;19925;-89
2022/11/16 05:36:39;;;;;;;;;;;10.30;99.90;;;;;;5022221;28;20424;-88
2022/11/16 05:39:07;;;;;;;;;;;10.10;99.90;;;;;;5011631;28;19967;-88
2022/11/16 05:41:35;;;;;;;;;;;10.10;99.90;;;;;;5022159;28;20258;-90
2022/11/16 05:44:01;;;;;;;;;;;10.20;99.90;;;;;;5019424;28;20345;-89
2022/11/16 05:46:27;;;;;;;;;;;10.10;99.90;;;;;;5019204;28;20020;-89
2022/11/16 05:48:53;;;;;;;;;;;10.20;99.90;;;;;;5018876;28;19925;-90
2022/11/16 05:51:18;;;;;;;;;;;10.10;99.90;;;;;;5035307;28;19925;-89
2022/11/16 05:53:44;;;;;;;;;;;10.10;99.90;;;;;;5028501;28;19990;-89
2022/11/16 05:56:10;;;;;;;;;;;10.10;99.90;;;;;;5018310;28;19931;-89
2022/11/16 05:58:36;;;;;;;;;;;10.20;99.90;;;;;;5019159;28;20027;-89
2022/11/16 06:01:04;;;;;;;;;;;10.30;99.90;;;;;;5015903;28;20015;-89
2022/11/16 06:03:35;;;;;;;;;;;10.20;99.90;;;;;;5033200;28;20048;-89
2022/11/16 06:06:01;;;;;;;;;;;10.10;99.90;;;;;;5022716;28;19932;-89
2022/11/16 06:08:30;;;;;;;;;;;10.10;99.90;;;;;;5026489;28;20039;-89
2022/11/16 06:10:55;;;;;;;;;;;10.10;99.90;;;;;;5034382;28;19931;-89
2022/11/16 06:13:26;;;;;;;;;;;10.40;99.90;;;;;;5046777;28;19925;-89
2022/11/16 06:15:59;;;;;;;;;;;10.30;99.90;;;;;;5018098;28;19933;-89
2022/11/16 06:18:28;;;;;;;;;;;10.30;99.90;;;;;;5003142;28;19929;-89
2022/11/16 06:20:54;;;;;;;;;;;10.20;99.90;;;;;;5027530;28;19929;-89
2022/11/16 06:23:20;;;;;;;;;;;10.10;99.90;;;;;;5018391;28;19925;-89
2022/11/16 06:25:45;;;;;;;;;;;10.20;99.90;;;;;;5020683;28;19931;-90
2022/11/16 06:28:11;;;;;;;;;;;10.10;99.90;;;;;;5021208;28;19975;-90
2022/11/16 06:30:40;;;;;;;;;;;10.10;99.90;;;;;;5028533;28;19983;-89
2022/11/16 06:33:06;;;;;;;;;;;10.10;99.90;;;;;;5034727;28;19972;-90
2022/11/16 06:35:31;;;;;;;;;;;10.10;99.90;;;;;;5022142;28;20647;-91
2022/11/16 06:37:57;;;;;;;;;;;10.20;99.90;;;;;;5015207;28;19925;-89
2022/11/16 06:40:26;;;;;;;;;;;10.10;99.90;;;;;;5011771;28;20036;-89
2022/11/16 06:42:56;;;;;;;;;;;10.30;99.90;;;;;;5002695;28;19979;-90
2022/11/16 06:45:25;;;;;;;;;;;10.10;99.90;;;;;;5023339;28;19925;-89
2022/11/16 06:47:58;;;;;;;;;;;9.10;99.90;;;;;;5036591;28;19971;-90
2022/11/16 06:50:31;;;;;;;;;;;10.10;99.90;;;;;;5019409;28;19925;-89
2022/11/16 06:52:59;;;;;;;;;;;10.30;99.90;;;;;;5029243;28;19983;-90
2022/11/16 06:55:28;;;;;;;;;;;10.40;99.90;;;;;;5023094;28;19975;-89
2022/11/16 06:58:41;;;;;;;;;;;10.20;99.90;;;;;;5020319;28;19928;-93
2022/11/16 07:01:10;;;;;;;;;;;10.40;99.90;;;;;;4991290;28;19978;-90
2022/11/16 07:03:39;;;;;;;;;;;10.10;99.90;;;;;;5021759;28;19939;-91
2022/11/16 07:06:09;;;;;;;;;;;10.60;99.90;;;;;;5020906;28;20036;-88
2022/11/16 07:08:34;;;;;;;;;;;10.30;99.90;;;;;;5035230;28;20305;-90
2022/11/16 07:11:02;;;;;;;;;;;10.30;99.90;;;;;;5016415;28;20016;-89
2022/11/16 07:13:29;;;;;;;;;;;12.10;99.90;;;;;;5021134;28;20375;-90
2022/11/16 07:16:15;;;;;;;;;;;10.30;99.90;;;;;;5023926;28;19925;-93
2022/11/16 07:18:51;;;;;;;;;;;10.40;99.90;;;;;;5012729;28;19956;-95
2022/11/16 07:24:13;;;;;;;;;;;10.20;99.90;;;;;;5016923;28;20019;-95
2022/11/16 07:26:47;;;;;;;;;;;10.10;99.90;;;;;;5004563;28;20086;-92
2022/11/16 07:29:15;;;;;;;;;;;9.90;99.90;;;;;;5020552;28;20272;-92
2022/11/16 07:31:46;;;;;;;;;;;10.30;99.90;;;;;;5004103;28;19932;-93
2022/11/16 07:34:15;;;;;;;;;;;10.40;99.90;;;;;;5019861;28;19929;-90
2022/11/16 07:36:46;;;;;;;;;;;10.20;99.90;;;;;;5003449;28;19925;-92
2022/11/16 07:39:37;;;;;;;;;;;10.10;99.90;;;;;;5018781;28;19932;-89
2022/11/16 07:42:03;;;;;;;;;;;10.20;99.90;;;;;;5021463;28;19947;-91
2022/11/16 07:44:31;;;;;;;;;;;10.10;99.90;;;;;;5003597;28;19925;-92
2022/11/16 08:02:35;;;;;;;;;;;10.10;99.90;;;;;;5110828;22;20097;-89
2022/11/16 08:05:01;;;;;;;;;;;10.10;99.90;;;;;;5052565;28;19925;-89
2022/11/16 08:07:27;;;;;;;;;;;9.80;99.90;;;;;;5048230;28;19925;-89
2022/11/16 08:09:52;;;;;;;;;;;10.10;99.90;;;;;;5032298;28;19925;-90
2022/11/16 08:12:18;;;;;;;;;;;10.10;99.90;;;;;;5035627;28;19929;-89
2022/11/16 08:14:43;;;;;;;;;;;11.10;99.90;;;;;;5021400;28;19947;-90
2022/11/16 08:17:09;;;;;;;;;;;10.30;99.90;;;;;;5013934;28;19925;-88
2022/11/16 08:19:35;;;;;;;;;;;10.10;99.90;;;;;;5034963;28;19925;-90
2022/11/16 08:22:01;;;;;;;;;;;10.20;99.90;;;;;;5018251;28;19929;-89
2022/11/16 08:24:27;;;;;;;;;;;10.10;99.90;;;;;;5014232;28;19925;-90
2022/11/16 08:26:53;;;;;;;;;;;10.10;99.90;;;;;;5016197;28;19939;-89
2022/11/16 08:29:19;;;;;;;;;;;10.20;99.90;;;;;;5034827;28;19931;-90
2022/11/16 08:31:44;;;;;;;;;;;10.20;99.90;;;;;;5018214;28;19928;-89
2022/11/16 08:34:10;;;;;;;;;;;10.10;99.90;;;;;;5011898;28;19925;-89
2022/11/16 08:36:36;;;;;;;;;;;10.20;99.90;;;;;;5024158;28;19925;-89
2022/11/16 08:39:01;;;;;;;;;;;10.20;99.90;;;;;;5018610;28;19925;-89
2022/11/16 08:41:27;;;;;;;;;;;10.20;99.90;;;;;;5018334;28;20328;-90
2022/11/16 08:43:55;;;;;;;;;;;10.10;99.90;;;;;;5025435;28;19928;-89
2022/11/16 08:46:20;;;;;;;;;;;10.30;99.90;;;;;;5029057;28;19924;-89
2022/11/16 08:48:46;;;;;;;;;;;11.80;99.90;;;;;;5014514;28;20372;-88
2022/11/16 08:51:13;;;;;;;;;;;10.20;99.90;;;;;;5033020;28;19924;-90
2022/11/16 08:53:39;;;;;;;;;;;10.20;99.90;;;;;;5034036;28;19925;-89
2022/11/16 08:56:08;;;;;;;;;;;10.20;99.90;;;;;;5016868;28;20456;-88
2022/11/16 08:58:34;;;;;;;;;;;10.20;99.90;;;;;;5030895;28;20470;-89
2022/11/16 09:01:15;;;;;;;;;;;10.20;99.90;;;;;;4998388;28;19925;-88
2022/11/16 09:03:41;;;;;;;;;;;10.20;99.90;;;;;;5017130;28;20620;-90
2022/11/16 09:06:07;;;;;;;;;;;8.80;99.90;;;;;;5015057;28;20039;-86
2022/11/16 09:08:34;;;;;;;;;;;10.20;99.90;;;;;;5030794;28;19925;-87
2022/11/16 09:11:02;;;;;;;;;;;11.20;99.90;;;;;;5014231;28;20671;-88
2022/11/16 09:13:28;;;;;;;;;;;10.30;99.90;;;;;;5006940;28;19933;-87
2022/11/16 09:15:57;;;;;;;;;;;10.30;99.90;;;;;;5033549;28;19925;-87
2022/11/16 09:18:23;;;;;;;;;;;10.30;99.90;;;;;;5033718;28;19924;-88
2022/11/16 09:20:48;;;;;;;;;;;10.40;99.90;;;;;;5033683;28;20016;-88
2022/11/16 09:23:14;;;;;;;;;;;10.40;99.90;;;;;;5015775;28;19947;-88
2022/11/16 09:25:40;;;;;;;;;;;10.40;99.90;;;;;;5017097;28;19979;-88
2022/11/16 09:28:07;;;;;;;;;;;10.50;99.90;;;;;;4998914;28;19933;-89
2022/11/16 09:30:40;;;;;;;;;;;10.50;99.90;;;;;;5022763;28;19994;-92
2022/11/16 09:33:06;;;;;;;;;;;10.50;99.90;;;;;;5010824;28;19995;-90
2022/11/16 09:35:32;;;;;;;;;;;10.70;99.90;;;;;;5019402;28;20372;-90
2022/11/16 09:37:58;;;;;;;;;;;10.90;99.90;;;;;;5009880;28;20316;-90
2022/11/16 09:40:29;;;;;;;;;;;10.70;99.90;;;;;;5015028;28;20030;-90
2022/11/16 09:43:04;;;;;;;;;;;10.60;99.90;;;;;;5031649;28;19947;-92
2022/11/16 09:45:42;;;;;;;;;;;10.70;99.90;;;;;;5013037;28;19929;-90
2022/11/16 09:48:14;;;;;;;;;;;10.40;99.90;;;;;;5013427;28;19929;-92
2022/11/16 09:51:18;;;;;;;;;;;10.80;99.90;;;;;;5018854;28;19932;-92
2022/11/16 09:53:46;;;;;;;;;;;10.70;99.90;;;;;;4967082;28;19934;-91
2022/11/16 09:56:20;;;;;;;;;;;10.70;99.90;;;;;;5018572;28;19925;-90
2022/11/16 09:58:57;;;;;;;;;;;10.70;99.90;;;;;;5014165;28;20011;-92
2022/11/16 10:01:26;;;;;;;;;;;10.90;99.90;;;;;;5026696;28;19924;-92
2022/11/16 10:03:55;;;;;;;;;;;11.30;99.90;;;;;;5026217;28;19925;-91
2022/11/16 10:06:45;;;;;;;;;;;10.90;99.90;;;;;;5036211;28;20343;-91
2022/11/16 10:09:14;;;;;;;;;;;11.00;99.90;;;;;;5037010;28;19931;-91
2022/11/16 10:11:48;;;;;;;;;;;11.10;99.90;;;;;;5017681;28;20442;-90
2022/11/16 10:14:14;;;;;;;;;;;11.10;99.90;;;;;;5014128;28;19924;-89
2022/11/16 10:16:43;;;;;;;;;;;11.40;99.90;;;;;;5019862;28;19948;-90
2022/11/16 10:19:09;;;;;;;;;;;11.20;99.90;;;;;;5013970;28;19925;-90
2022/11/16 10:21:36;;;;;;;;;;;11.40;99.90;;;;;;5024931;28;19990;-92
2022/11/16 10:24:09;;;;;;;;;;;11.30;99.90;;;;;;5010621;28;19936;-91
2022/11/16 10:26:50;;;;;;;;;;;11.40;99.90;;;;;;5015915;28;19931;-89
2022/11/16 10:29:29;;;;;;;;;;;11.40;99.90;;;;;;5014826;28;20002;-89
2022/11/16 10:32:33;;;;;;;;;;;11.60;99.90;;;;;;5020363;28;19936;-89
2022/11/16 10:35:11;;;;;;;;;;;11.50;99.90;;;;;;4967053;28;19988;-89
2022/11/16 10:37:42;;;;;;;;;;;11.40;99.90;;;;;;4968772;28;19926;-89
2022/11/16 10:40:17;;;;;;;;;;;11.50;99.90;;;;;;4990291;28;19936;-89
2022/11/16 10:42:45;;;;;;;;;;;11.50;99.90;;;;;;5047061;28;19925;-89
2022/11/16 10:45:20;;;;;;;;;;;12.40;99.90;;;;;;5012448;28;19964;-90
2022/11/16 10:47:58;;;;;;;;;;;11.50;99.90;;;;;;5028609;28;19975;-90
2022/11/16 10:50:30;;;;;;;;;;;11.60;99.90;;;;;;5028483;28;19972;-89
2022/11/16 10:52:56;;;;;;;;;;;11.60;99.90;;;;;;5022297;28;20279;-89
2022/11/16 10:55:25;;;;;;;;;;;12.70;99.90;;;;;;5016979;28;19924;-90
2022/11/16 10:57:59;;;;;;;;;;;10.60;99.90;;;;;;5017240;28;19975;-89
2022/11/16 11:00:37;;;;;;;;;;;12.10;99.90;;;;;;5029683;28;20373;-90
2022/11/16 11:03:02;;;;;;;;;;;11.10;99.90;;;;;;5017323;28;19925;-89
2022/11/16 11:05:28;;;;;;;;;;;12.20;99.90;;;;;;5029583;28;19924;-90
2022/11/16 11:08:10;;;;;;;;;;;12.20;99.90;;;;;;5007433;28;19925;-88
2022/11/16 11:10:37;;;;;;;;;;;12.30;99.90;;;;;;5004119;28;19933;-90
2022/11/16 11:13:09;;;;;;;;;;;11.20;99.90;;;;;;5016840;28;19955;-90
2022/11/16 11:15:35;;;;;;;;;;;12.30;99.90;;;;;;5035809;28;19925;-90
2022/11/16 11:18:20;;;;;;;;;;;12.30;99.90;;;;;;5017544;28;19941;-90
2022/11/16 11:20:47;;;;;;;;;;;12.20;99.90;;;;;;5021357;28;19933;-90
2022/11/16 11:23:14;;;;;;;;;;;12.20;99.90;;;;;;5019606;28;19975;-90
2022/11/16 11:25:48;;;;;;;;;;;12.20;99.90;;;;;;5021040;28;19932;-90
2022/11/16 11:28:19;;;;;;;;;;;12.30;99.90;;;;;;5033801;28;20064;-89
2022/11/16 11:31:08;;;;;;;;;;;12.20;99.90;;;;;;5019434;28;19929;-90
2022/11/16 11:33:38;;;;;;;;;;;12.10;99.90;;;;;;5014049;28;19956;-92
2022/11/16 11:36:03;;;;;;;;;;;11.90;99.90;;;;;;5013289;28;19925;-90
2022/11/16 11:38:30;;;;;;;;;;;11.90;99.90;;;;;;5013670;28;19925;-89
2022/11/16 11:41:00;;;;;;;;;;;11.90;99.90;;;;;;5017489;28;19968;-89
2022/11/16 11:43:26;;;;;;;;;;;11.80;99.90;;;;;;5016440;28;20346;-89
2022/11/16 11:46:14;;;;;;;;;;;10.30;99.90;;;;;;5013667;28;19925;-90
2022/11/16 11:48:39;;;;;;;;;;;11.90;99.90;;;;;;5014791;28;19969;-90
2022/11/16 11:51:20;;;;;;;;;;;11.80;99.90;;;;;;5014147;28;19992;-89
2022/11/16 11:53:49;;;;;;;;;;;11.80;99.90;;;;;;5020136;28;19924;-89
2022/11/16 11:56:14;;;;;;;;;;;11.90;99.90;;;;;;5013310;28;20019;-90
2022/11/16 11:58:43;;;;;;;;;;;11.90;99.90;;;;;;5010060;28;20351;-90
2022/11/16 12:01:09;;;;;;;;;;;11.90;99.90;;;;;;5031045;28;19933;-88
2022/11/16 12:03:40;;;;;;;;;;;12.00;99.90;;;;;;5016166;28;20352;-89
2022/11/16 12:06:08;;;;;;;;;;;12.10;99.90;;;;;;5019392;28;19929;-89
2022/11/16 12:08:34;;;;;;;;;;;12.20;99.90;;;;;;5035540;28;20380;-89
2022/11/16 12:11:08;;;;;;;;;;;12.30;99.90;;;;;;5035637;28;19979;-86
2022/11/16 12:13:43;;;;;;;;;;;12.50;99.90;;;;;;5018418;28;19933;-87
2022/11/16 12:16:12;;;;;;;;;;;12.60;99.90;;;;;;5019852;28;19924;-86
2022/11/16 12:18:51;;;;;;;;;;;12.70;99.90;;;;;;5027652;28;19945;-87
2022/11/16 12:21:21;;;;;;;;;;;12.70;99.90;;;;;;5031070;28;20376;-87
2022/11/16 12:24:03;;;;;;;;;;;12.80;99.90;;;;;;5019285;28;20291;-87
2022/11/16 12:26:37;;;;;;;;;;;12.70;99.90;;;;;;5019594;28;19925;-87
2022/11/16 12:29:13;;;;;;;;;;;12.70;99.90;;;;;;5015766;28;20261;-86
2022/11/16 12:32:05;;;;;;;;;;;12.80;99.90;;;;;;5033899;28;19924;-86
2022/11/16 12:34:34;;;;;;;;;;;12.80;99.90;;;;;;5015522;28;19975;-86
2022/11/16 12:37:10;;;;;;;;;;;13.00;99.90;;;;;;5017940;28;19933;-86
2022/11/16 12:39:47;;;;;;;;;;;13.00;99.90;;;;;;5036734;28;19929;-86
2022/11/16 12:42:13;;;;;;;;;;;13.00;99.90;;;;;;5031833;28;19979;-87
2022/11/16 12:44:42;;;;;;;;;;;13.00;99.90;;;;;;5025275;28;20400;-87
2022/11/16 12:47:16;;;;;;;;;;;13.00;99.90;;;;;;5006882;28;19940;-87
2022/11/16 12:49:54;;;;;;;;;;;12.90;99.90;;;;;;5005009;28;19924;-87
2022/11/16 12:52:38;;;;;;;;;;;12.90;99.90;;;;;;5012918;28;19967;-87
2022/11/16 12:55:16;;;;;;;;;;;12.90;99.90;;;;;;5018094;28;19960;-85
2022/11/16 12:57:45;;;;;;;;;;;12.90;99.90;;;;;;5031504;28;20380;-87
2022/11/16 13:00:13;;;;;;;;;;;12.80;99.90;;;;;;5016398;28;19979;-88
2022/11/16 13:02:58;;;;;;;;;;;12.70;99.90;;;;;;5012817;28;19929;-88
2022/11/16 13:05:44;;;;;;;;;;;12.70;99.90;;;;;;5027834;28;20288;-89
2022/11/16 13:08:19;;;;;;;;;;;12.70;99.90;;;;;;4993131;28;19929;-90
2022/11/16 13:10:47;;;;;;;;;;;12.80;99.90;;;;;;5036310;28;20383;-88
2022/11/16 13:13:24;;;;;;;;;;;12.80;99.90;;;;;;5037944;28;19924;-88
2022/11/16 13:15:51;;;;;;;;;;;12.80;99.90;;;;;;5019662;28;20021;-88
2022/11/16 13:18:19;;;;;;;;;;;12.80;99.90;;;;;;5022720;28;20062;-89
2022/11/16 13:20:53;;;;;;;;;;;12.80;99.90;;;;;;5013730;28;19929;-89
2022/11/16 13:23:30;;;;;;;;;;;12.70;99.90;;;;;;5033392;28;20020;-89
2022/11/16 13:26:02;;;;;;;;;;;12.70;99.90;;;;;;5018030;28;19933;-89
2022/11/16 13:28:47;;;;;;;;;;;12.70;99.90;;;;;;5031492;28;20011;-89
2022/11/16 13:31:15;;;;;;;;;;;12.70;99.90;;;;;;5024257;28;19932;-89
2022/11/16 13:33:43;;;;;;;;;;;12.60;99.90;;;;;;5034129;28;20055;-89
2022/11/16 13:36:27;;;;;;;;;;;12.50;99.90;;;;;;5016314;28;20011;-88
2022/11/16 13:38:53;;;;;;;;;;;12.60;99.90;;;;;;5028079;28;19924;-89
2022/11/16 13:41:41;;;;;;;;;;;12.40;99.90;;;;;;5019001;28;19932;-90
2022/11/16 13:44:12;;;;;;;;;;;12.50;99.90;;;;;;5034778;28;20295;-90
2022/11/16 13:46:40;;;;;;;;;;;12.40;99.90;;;;;;5035269;28;20015;-90
2022/11/16 13:49:17;;;;;;;;;;;12.30;99.90;;;;;;5034448;28;19945;-92
2022/11/16 13:51:49;;;;;;;;;;;12.20;99.90;;;;;;5018978;28;19925;-92
2022/11/16 13:54:26;;;;;;;;;;;12.20;99.90;;;;;;5018680;28;19926;-94
2022/11/16 13:56:51;;;;;;;;;;;12.00;99.90;;;;;;5018851;28;19936;-90
2022/11/16 13:59:21;;;;;;;;;;;12.10;99.90;;;;;;5031643;28;19929;-90
2022/11/16 14:02:00;;;;;;;;;;;12.10;99.90;;;;;;5013739;28;19929;-91
2022/11/16 14:04:34;;;;;;;;;;;12.00;99.90;;;;;;4997009;28;19926;-90
2022/11/16 14:06:59;;;;;;;;;;;11.90;99.90;;;;;;5020574;28;19932;-89
2022/11/16 14:09:41;;;;;;;;;;;11.90;99.90;;;;;;5001463;28;19925;-91
2022/11/16 14:12:26;;;;;;;;;;;11.80;99.90;;;;;;5000356;28;19929;-91
2022/11/16 14:15:00;;;;;;;;;;;11.70;99.90;;;;;;5014488;28;19925;-90
2022/11/16 14:17:45;;;;;;;;;;;11.80;99.90;;;;;;5024616;28;19932;-90
2022/11/16 14:20:11;;;;;;;;;;;11.80;99.90;;;;;;5025919;28;20273;-91
2022/11/16 14:22:44;;;;;;;;;;;11.60;99.90;;;;;;5010789;28;20004;-89
2022/11/16 14:25:23;;;;;;;;;;;10.20;99.90;;;;;;5009731;28;19926;-89
2022/11/16 14:27:57;;;;;;;;;;;11.60;99.90;;;;;;4996514;28;19983;-90
2022/11/16 14:30:22;;;;;;;;;;;11.70;99.90;;;;;;4998708;28;20357;-92
2022/11/16 14:32:51;;;;;;;;;;;11.50;99.90;;;;;;4997720;28;20040;-92
2022/11/16 14:35:32;;;;;;;;;;;11.60;99.90;;;;;;4998416;28;20273;-91
2022/11/16 14:38:00;;;;;;;;;;;11.70;99.90;;;;;;5014216;28;20019;-91
2022/11/16 14:40:26;;;;;;;;;;;11.70;99.90;;;;;;4994497;28;19932;-89
2022/11/16 14:42:57;;;;;;;;;;;11.60;99.90;;;;;;5014631;28;20268;-91
2022/11/16 14:45:30;;;;;;;;;;;11.40;99.90;;;;;;5014480;28;19982;-91
2022/11/16 14:48:00;;;;;;;;;;;11.30;99.90;;;;;;5015331;28;19925;-91
2022/11/16 14:50:26;;;;;;;;;;;11.60;99.90;;;;;;4999414;28;19936;-91
2022/11/16 14:52:53;;;;;;;;;;;11.20;99.90;;;;;;5018450;28;19925;-90
2022/11/16 14:55:20;;;;;;;;;;;11.50;99.90;;;;;;5009069;28;20016;-90
2022/11/16 14:57:46;;;;;;;;;;;11.60;99.90;;;;;;5013260;28;20043;-91
2022/11/16 15:00:23;;;;;;;;;;;12.10;99.90;;;;;;4997736;28;19964;-91
2022/11/16 15:02:51;;;;;;;;;;;11.10;99.90;;;;;;5012100;28;19929;-90
2022/11/16 15:05:18;;;;;;;;;;;11.10;99.90;;;;;;5001409;28;20276;-91
2022/11/16 15:07:48;;;;;;;;;;;11.00;99.90;;;;;;5018280;28;20365;-90
2022/11/16 15:10:21;;;;;;;;;;;11.10;99.90;;;;;;5030795;28;20335;-90
2022/11/16 15:12:50;;;;;;;;;;;11.00;99.90;;;;;;4994344;28;19929;-92
2022/11/16 15:15:17;;;;;;;;;;;10.80;99.90;;;;;;5018008;28;19925;-89
2022/11/16 15:17:58;;;;;;;;;;;11.00;99.90;;;;;;5027471;28;19951;-89
2022/11/16 15:20:25;;;;;;;;;;;10.50;99.90;;;;;;5016551;28;19926;-88
2022/11/16 15:22:52;;;;;;;;;;;10.80;99.90;;;;;;5012549;28;20038;-88
2022/11/16 15:25:41;;;;;;;;;;;10.80;99.90;;;;;;5010624;28;19980;-89
2022/11/16 15:28:14;;;;;;;;;;;10.80;99.90;;;;;;5017593;28;19932;-90
2022/11/16 15:30:40;;;;;;;;;;;10.80;99.90;;;;;;4996204;28;20008;-88
2022/11/16 15:33:13;;;;;;;;;;;10.60;99.90;;;;;;4993224;28;20478;-90
2022/11/16 15:35:39;;;;;;;;;;;10.60;99.90;;;;;;4996921;28;19925;-89
2022/11/16 15:38:13;;;;;;;;;;;10.40;99.90;;;;;;4980476;28;19925;-90